Time;durP1;ratioP1;P1;durP2;ratioP2;P2;SDS_P1;SDS_P2;PMS_P1;PMS_P2;Temp;Humidity;BMP_temperature;BMP_pressure;BME280_temperature;BME280_humidity;BME280_pressure;Samples;Min_cycle;Max_cycle;Signal;HPM_P1;HPM_P2
2021/12/14 00:02:10;;;;;;;6.38;5.45;;;8.40;99.90;;;;;;5039270;28;20025;-62
2021/12/14 00:04:37;;;;;;;6.22;5.32;;;8.40;99.90;;;;;;5039336;28;20049;-62
2021/12/14 00:07:09;;;;;;;7.00;5.70;;;8.30;99.90;;;;;;5039896;28;20111;-63
2021/12/14 00:09:39;;;;;;;6.80;5.43;;;8.20;99.90;;;;;;5039346;28;20029;-63
2021/12/14 00:12:35;;;;;;;7.35;5.22;;;8.30;99.90;;;;;;5039875;28;20063;-62
2021/12/14 00:15:11;;;;;;;6.15;5.25;;;8.30;99.90;;;;;;5039880;28;20041;-62
2021/12/14 00:17:53;;;;;;;7.00;5.10;;;8.30;99.90;;;;;;5039682;28;20131;-63
2021/12/14 00:20:43;;;;;;;7.00;5.55;;;8.40;99.90;;;;;;5040024;28;20026;-63
2021/12/14 00:25:49;;;;;;;8.82;5.18;;;8.50;99.90;;;;;;5039659;28;20022;-63
2021/12/14 00:28:25;;;;;;;6.80;5.15;;;8.40;99.90;;;;;;5039821;28;20041;-62
2021/12/14 00:30:53;;;;;;;7.88;5.25;;;8.30;99.90;;;;;;5039590;28;20332;-63
2021/12/14 00:33:23;;;;;;;7.80;5.57;;;8.30;99.90;;;;;;5039437;28;20333;-62
2021/12/14 00:35:49;;;;;;;6.45;5.30;;;8.30;99.90;;;;;;5039374;28;20039;-63
2021/12/14 00:38:21;;;;;;;7.68;4.95;;;8.40;99.90;;;;;;5039281;28;20128;-64
2021/12/14 00:40:57;;;;;;;8.68;5.15;;;8.40;99.90;;;;;;5039263;28;20057;-63
2021/12/14 00:43:23;;;;;;;7.32;5.70;;;8.30;99.90;;;;;;5039317;28;20022;-63
2021/12/14 00:45:50;;;;;;;7.43;5.80;;;8.40;99.90;;;;;;5039318;28;20335;-63
2021/12/14 00:48:17;;;;;;;7.38;5.65;;;8.50;99.90;;;;;;5038142;28;20053;-63
2021/12/14 00:50:47;;;;;;;8.75;5.28;;;8.50;99.90;;;;;;5039166;28;20036;-63
2021/12/14 00:53:13;;;;;;;6.45;5.13;;;8.60;99.90;;;;;;5039113;28;20116;-63
2021/12/14 00:55:42;;;;;;;8.30;5.60;;;8.60;99.90;;;;;;5021920;28;20341;-63
2021/12/14 00:58:11;;;;;;;8.35;5.95;;;8.50;99.90;;;;;;5071792;28;20026;-62
2021/12/14 01:00:52;;;;;;;8.48;5.65;;;8.40;99.90;;;;;;5039638;28;20033;-62
2021/12/14 01:03:19;;;;;;;8.55;5.25;;;8.40;99.90;;;;;;5038300;28;20270;-62
2021/12/14 01:05:49;;;;;;;8.20;5.40;;;8.30;99.90;;;;;;5038967;28;20040;-62
2021/12/14 01:08:29;;;;;;;7.85;5.72;;;8.30;99.90;;;;;;5021980;28;20045;-63
2021/12/14 01:11:11;;;;;;;8.25;6.13;;;8.30;99.90;;;;;;5038900;28;20025;-63
2021/12/14 01:13:43;;;;;;;9.05;5.93;;;8.40;99.90;;;;;;5037994;28;20123;-62
2021/12/14 01:16:16;;;;;;;7.78;5.82;;;8.40;99.90;;;;;;5039115;28;20394;-62
2021/12/14 01:18:49;;;;;;;9.80;6.35;;;8.30;99.90;;;;;;5038791;28;20036;-63
2021/12/14 01:23:59;;;;;;;8.45;6.03;;;8.50;99.90;;;;;;5038924;28;19959;-63
2021/12/14 01:26:25;;;;;;;9.80;5.97;;;8.30;99.90;;;;;;5038587;28;20033;-62
2021/12/14 01:28:51;;;;;;;9.85;6.80;;;8.30;99.90;;;;;;5071026;28;20098;-63
2021/12/14 01:31:26;;;;;;;9.00;6.55;;;8.40;99.90;;;;;;5038433;28;20324;-62
2021/12/14 01:33:56;;;;;;;8.27;6.60;;;8.30;99.90;;;;;;5038617;28;20047;-63
2021/12/14 01:36:38;;;;;;;10.00;6.32;;;8.30;99.90;;;;;;5038380;28;20022;-63
2021/12/14 01:41:51;;;;;;;10.55;6.70;;;8.30;99.90;;;;;;5037540;28;20041;-63
2021/12/14 01:44:17;;;;;;;10.68;7.15;;;8.40;99.90;;;;;;5037355;28;20025;-62
2021/12/14 01:46:57;;;;;;;9.40;6.85;;;8.40;99.90;;;;;;5037431;28;20046;-62
2021/12/14 01:49:52;;;;;;;9.00;6.90;;;8.30;99.90;;;;;;5036930;28;20033;-62
2021/12/14 01:52:33;;;;;;;10.95;7.65;;;8.30;99.90;;;;;;5037269;28;20040;-64
2021/12/14 01:55:07;;;;;;;10.00;7.57;;;8.20;99.90;;;;;;5038563;28;20029;-62
2021/12/14 01:57:34;;;;;;;10.30;7.25;;;8.20;99.90;;;;;;5053774;28;20100;-64
2021/12/14 02:00:02;;;;;;;10.13;7.65;;;8.20;99.90;;;;;;5020507;28;20029;-64
2021/12/14 02:02:42;;;;;;;10.40;7.93;;;8.20;99.90;;;;;;5037810;28;20064;-61
2021/12/14 02:05:17;;;;;;;12.00;8.05;;;8.20;99.90;;;;;;5037983;28;20301;-64
2021/12/14 02:07:44;;;;;;;10.18;8.18;;;8.20;99.90;;;;;;5036901;28;20029;-62
2021/12/14 02:10:32;;;;;;;11.10;8.30;;;8.30;99.90;;;;;;5037746;28;20064;-61
2021/12/14 02:12:59;;;;;;;11.70;7.72;;;8.20;99.90;;;;;;5037396;28;20053;-62
2021/12/14 02:15:39;;;;;;;10.98;8.55;;;8.20;99.90;;;;;;5036823;28;20030;-62
2021/12/14 02:18:15;;;;;;;10.43;8.15;;;8.30;99.90;;;;;;5036851;28;20037;-62
2021/12/14 02:21:09;;;;;;;10.93;8.27;;;8.30;99.90;;;;;;5037498;28;20041;-62
2021/12/14 02:23:43;;;;;;;10.45;8.30;;;8.40;99.90;;;;;;5036697;28;20029;-62
2021/12/14 02:26:15;;;;;;;12.68;8.50;;;8.40;99.90;;;;;;5036730;28;20054;-62
2021/12/14 02:28:42;;;;;;;10.50;8.18;;;8.40;99.90;;;;;;5037618;28;20087;-62
2021/12/14 02:31:11;;;;;;;12.10;8.93;;;8.40;99.90;;;;;;5036533;28;20296;-62
2021/12/14 02:33:40;;;;;;;11.48;8.52;;;8.40;99.90;;;;;;5037298;28;20037;-62
2021/12/14 02:36:12;;;;;;;12.10;8.30;;;8.40;99.90;;;;;;5036559;28;20075;-62
2021/12/14 02:38:42;;;;;;;15.23;8.52;;;8.40;99.90;;;;;;5037231;28;20486;-63
2021/12/14 02:41:09;;;;;;;11.00;8.32;;;8.50;99.90;;;;;;5020106;28;20033;-62
2021/12/14 02:43:52;;;;;;;12.43;9.07;;;8.30;99.90;;;;;;5036488;28;20064;-62
2021/12/14 02:46:35;;;;;;;11.15;8.80;;;8.30;99.90;;;;;;5036504;28;20053;-62
2021/12/14 02:49:06;;;;;;;12.93;9.07;;;8.20;99.90;;;;;;5036308;28;20163;-62
2021/12/14 02:51:53;;;;;;;12.50;8.95;;;8.20;99.90;;;;;;5036376;28;20091;-62
2021/12/14 02:54:26;;;;;;;11.20;9.10;;;8.10;99.90;;;;;;5036693;28;20456;-61
2021/12/14 02:57:07;;;;;;;13.05;9.27;;;8.10;99.90;;;;;;5036278;28;20025;-62
2021/12/14 02:59:36;;;;;;;12.35;9.32;;;8.10;99.90;;;;;;5037144;28;20064;-62
2021/12/14 03:02:06;;;;;;;12.35;9.25;;;8.10;99.90;;;;;;5036107;28;20095;-62
2021/12/14 03:04:48;;;;;;;14.55;9.73;;;8.10;99.90;;;;;;5036142;28;20021;-62
2021/12/14 03:07:18;;;;;;;14.05;10.10;;;8.10;99.90;;;;;;5036093;28;20124;-63
2021/12/14 03:12:27;;;;;;;15.18;10.13;;;8.10;99.90;;;;;;5036556;28;20064;-62
2021/12/14 03:15:10;;;;;;;14.98;10.43;;;8.10;99.90;;;;;;5036014;28;20151;-62
2021/12/14 03:17:37;;;;;;;14.32;10.50;;;8.00;99.90;;;;;;5036886;28;20030;-62
2021/12/14 03:20:12;;;;;;;14.85;10.32;;;8.00;99.90;;;;;;5035974;28;20091;-62
2021/12/14 03:23:06;;;;;;;14.88;10.93;;;8.00;99.90;;;;;;5036902;28;20336;-62
2021/12/14 03:25:34;;;;;;;15.25;10.50;;;8.10;99.90;;;;;;5019519;28;20021;-62
2021/12/14 03:28:00;;;;;;;15.65;9.82;;;8.10;99.90;;;;;;5036815;28;20072;-61
2021/12/14 03:30:26;;;;;;;18.10;10.73;;;8.00;99.90;;;;;;5036019;28;20436;-62
2021/12/14 03:32:56;;;;;;;16.10;11.00;;;8.00;99.90;;;;;;5035826;28;20083;-62
2021/12/14 03:35:38;;;;;;;15.75;11.05;;;8.10;99.90;;;;;;5036589;28;20060;-62
2021/12/14 03:38:24;;;;;;;13.85;10.30;;;8.10;99.90;;;;;;5035705;28;20091;-62
2021/12/14 03:40:58;;;;;;;15.13;10.65;;;8.10;99.90;;;;;;5036830;28;20021;-62
2021/12/14 03:43:27;;;;;;;18.58;11.07;;;8.00;99.90;;;;;;5036729;28;20084;-62
2021/12/14 03:45:54;;;;;;;14.15;10.75;;;8.00;99.90;;;;;;5035755;28;20033;-62
2021/12/14 03:48:23;;;;;;;16.58;11.30;;;8.10;99.90;;;;;;5035423;28;20056;-62
2021/12/14 03:50:50;;;;;;;15.48;10.93;;;8.10;99.90;;;;;;5019307;28;20029;-62
2021/12/14 03:53:20;;;;;;;17.75;11.98;;;8.10;99.90;;;;;;5035562;28;20033;-62
2021/12/14 03:55:55;;;;;;;16.75;11.30;;;8.20;99.90;;;;;;5035615;28;20025;-63
2021/12/14 03:58:25;;;;;;;17.58;11.43;;;8.20;99.90;;;;;;5035453;28;20099;-62
2021/12/14 04:00:55;;;;;;;18.20;11.82;;;8.30;99.90;;;;;;5036435;28;20368;-62
2021/12/14 04:03:24;;;;;;;18.50;11.90;;;8.20;99.90;;;;;;5036496;28;20048;-62
2021/12/14 04:06:02;;;;;;;18.05;12.18;;;8.20;99.90;;;;;;5035608;28;20022;-62
2021/12/14 04:08:29;;;;;;;17.88;12.27;;;8.10;99.90;;;;;;5035495;28;20308;-62
2021/12/14 04:10:57;;;;;;;16.48;11.75;;;8.10;99.90;;;;;;5035405;28;20064;-63
2021/12/14 04:13:27;;;;;;;18.33;11.82;;;8.10;99.90;;;;;;5035443;28;20045;-62
2021/12/14 04:15:55;;;;;;;19.00;12.57;;;8.20;99.90;;;;;;5035554;28;20368;-63
2021/12/14 04:18:24;;;;;;;20.40;12.98;;;8.20;99.90;;;;;;5035330;28;20123;-62
2021/12/14 04:20:55;;;;;;;20.60;12.75;;;8.20;99.90;;;;;;5036240;28;20025;-63
2021/12/14 04:23:26;;;;;;;13.63;9.48;;;8.20;99.90;;;;;;5036931;28;20034;-63
2021/12/14 04:25:57;;;;;;;19.67;13.18;;;8.20;99.90;;;;;;5038996;28;20022;-63
2021/12/14 04:28:28;;;;;;;18.58;12.43;;;8.30;99.90;;;;;;5039045;28;20029;-63
2021/12/14 04:30:56;;;;;;;;;;;8.50;99.90;;;;;;5039234;28;20055;-63
2021/12/14 04:33:29;;;;;;;22.60;12.90;;;8.60;99.90;;;;;;5038400;28;19909;-62
2021/12/14 04:35:55;;;;;;;18.90;13.07;;;8.50;99.90;;;;;;5039033;28;20112;-63
2021/12/14 04:38:30;;;;;;;19.13;12.93;;;8.50;99.90;;;;;;5022040;28;20041;-63
2021/12/14 04:52:19;;;;;;;19.30;12.90;;;8.40;99.90;;;;;;5038748;28;20037;-64
2021/12/14 04:54:55;;;;;;;18.35;12.40;;;8.40;99.90;;;;;;5038442;28;20304;-64
2021/12/14 04:57:43;;;;;;;18.30;13.68;;;8.30;99.90;;;;;;5021996;28;20336;-64
2021/12/14 05:00:24;;;;;;;20.88;13.43;;;8.30;99.90;;;;;;5038262;28;20033;-64
2021/12/14 05:03:03;;;;;;;20.52;13.40;;;8.40;99.90;;;;;;5038177;28;20032;-64
2021/12/14 05:05:40;;;;;;;22.15;14.07;;;8.40;99.90;;;;;;5022455;28;20021;-63
2021/12/14 05:10:38;;;;;;;21.83;13.93;;;8.30;99.90;;;;;;5039379;28;20100;-63
2021/12/14 05:13:05;;;;;;;21.27;13.80;;;8.20;99.90;;;;;;5038094;28;20033;-63
2021/12/14 05:15:34;;;;;;;19.45;13.52;;;8.20;99.90;;;;;;5037991;28;20034;-63
2021/12/14 05:17:59;;;;;;;20.65;13.48;;;8.30;99.90;;;;;;5037782;28;20412;-64
2021/12/14 05:20:26;;;;;;;21.17;13.88;;;8.30;99.90;;;;;;5037927;28;20118;-63
2021/12/14 05:22:54;;;;;;;19.55;13.13;;;8.30;99.90;;;;;;5037844;28;20160;-63
2021/12/14 05:25:26;;;;;;;19.80;13.73;;;8.30;99.90;;;;;;5038532;28;20095;-63
2021/12/14 05:28:01;;;;;;;24.45;13.70;;;8.30;99.90;;;;;;5038214;28;20048;-64
2021/12/14 05:30:37;;;;;;;21.17;13.57;;;8.30;99.90;;;;;;5038397;28;20341;-64
2021/12/14 05:33:23;;;;;;;21.42;13.68;;;8.40;99.90;;;;;;5037637;28;20108;-62
2021/12/14 05:35:54;;;;;;;18.83;13.10;;;8.40;99.90;;;;;;5037183;28;20029;-64
2021/12/14 05:38:37;;;;;;;19.27;13.65;;;8.40;99.90;;;;;;5037591;28;20282;-64
2021/12/14 05:43:05;;;;;;;20.70;13.75;;;8.50;99.90;;;;;;5037461;28;20021;-64
2021/12/14 05:43:55;;;;;;;20.38;13.73;;;8.40;99.90;;;;;;5037359;28;20041;-63
2021/12/14 05:46:33;;;;;;;20.40;13.40;;;8.50;99.90;;;;;;5037298;28;20400;-64
2021/12/14 05:49:27;;;;;;;20.83;13.90;;;8.40;99.90;;;;;;5037489;28;20313;-63
2021/12/14 05:51:55;;;;;;;21.73;13.80;;;8.20;99.90;;;;;;5037460;28;20108;-62
2021/12/14 05:54:25;;;;;;;20.73;13.93;;;8.10;99.90;;;;;;5037558;28;20364;-62
2021/12/14 05:56:52;;;;;;;23.75;14.40;;;8.10;99.90;;;;;;5037735;28;20113;-62
2021/12/14 05:59:25;;;;;;;25.35;15.18;;;8.00;99.90;;;;;;5037019;28;20064;-63
2021/12/14 06:01:51;;;;;;;23.70;14.27;;;8.10;99.90;;;;;;5037113;28;20104;-63
2021/12/14 06:04:18;;;;;;;23.52;14.93;;;8.20;99.90;;;;;;5036736;28;20029;-63
2021/12/14 06:06:51;;;;;;;23.08;15.00;;;8.30;99.90;;;;;;5036925;28;20026;-63
2021/12/14 06:09:30;;;;;;;23.83;15.18;;;8.30;99.90;;;;;;5036803;28;20029;-64
2021/12/14 06:12:21;;;;;;;27.40;16.02;;;8.30;99.90;;;;;;5036672;28;20278;-64
2021/12/14 06:14:52;;;;;;;23.98;15.40;;;8.40;99.90;;;;;;5036760;28;20030;-63
2021/12/14 06:17:39;;;;;;;24.70;15.60;;;8.40;99.90;;;;;;5036650;28;20048;-63
2021/12/14 06:20:20;;;;;;;23.35;14.65;;;8.50;99.90;;;;;;5036654;28;20037;-62
2021/12/14 06:22:49;;;;;;;24.30;15.70;;;8.40;99.90;;;;;;5036741;28;20025;-62
2021/12/14 06:25:35;;;;;;;23.42;15.05;;;8.20;99.90;;;;;;5037255;28;20033;-63
2021/12/14 06:28:02;;;;;;;25.70;15.80;;;8.20;99.90;;;;;;5037520;28;20072;-63
2021/12/14 06:30:32;;;;;;;27.05;15.35;;;8.30;99.90;;;;;;5020078;28;20037;-63
2021/12/14 06:33:06;;;;;;;24.85;15.02;;;8.40;99.90;;;;;;5036416;28;20389;-63
2021/12/14 06:35:46;;;;;;;27.00;16.17;;;8.40;99.90;;;;;;5036688;28;20037;-63
2021/12/14 06:38:28;;;;;;;23.13;15.60;;;8.40;99.90;;;;;;5036504;28;20029;-63
2021/12/14 06:41:12;;;;;;;25.20;16.23;;;8.40;99.90;;;;;;5036450;28;20025;-63
2021/12/14 06:43:59;;;;;;;24.33;16.13;;;8.50;99.90;;;;;;5036458;28;20026;-63
2021/12/14 06:46:33;;;;;;;24.63;16.08;;;8.40;99.90;;;;;;5019174;28;20045;-64
2021/12/14 06:49:12;;;;;;;28.38;16.00;;;8.50;99.90;;;;;;5036398;28;20040;-63
2021/12/14 06:51:59;;;;;;;28.23;17.00;;;8.40;99.90;;;;;;5036407;28;20052;-63
2021/12/14 06:54:32;;;;;;;25.77;15.88;;;8.30;99.90;;;;;;5036240;28;20472;-63
2021/12/14 06:57:03;;;;;;;29.20;17.02;;;8.30;99.90;;;;;;5036569;28;20049;-63
2021/12/14 06:59:39;;;;;;;26.02;16.60;;;8.30;99.90;;;;;;5036132;28;20063;-63
2021/12/14 07:02:24;;;;;;;27.40;16.65;;;8.50;99.90;;;;;;5022024;28;20112;-64
2021/12/14 07:05:05;;;;;;;28.98;17.05;;;8.60;99.90;;;;;;5036167;28;20047;-64
2021/12/14 07:07:35;;;;;;;30.17;16.63;;;8.70;99.90;;;;;;5036122;28;20300;-62
2021/12/14 07:10:10;;;;;;;27.08;16.35;;;8.60;99.90;;;;;;5036061;28;20048;-63
2021/12/14 07:12:38;;;;;;;34.25;17.40;;;8.40;99.90;;;;;;5035900;28;20041;-62
2021/12/14 07:15:23;;;;;;;28.77;17.70;;;8.50;99.90;;;;;;5036107;28;20039;-63
2021/12/14 07:18:00;;;;;;;31.63;18.45;;;8.50;99.90;;;;;;5035851;28;20091;-63
2021/12/14 07:20:33;;;;;;;30.67;18.00;;;8.40;99.90;;;;;;5036680;28;20034;-62
2021/12/14 07:23:22;;;;;;;31.63;18.17;;;8.30;99.90;;;;;;5036692;28;20113;-63
2021/12/14 07:26:07;;;;;;;31.65;18.08;;;8.20;99.90;;;;;;5036433;28;20496;-64
2021/12/14 07:28:44;;;;;;;33.30;19.08;;;8.40;99.90;;;;;;5036775;28;20021;-63
2021/12/14 07:31:21;;;;;;;26.27;13.68;;;8.40;99.90;;;;;;5069133;28;20099;-64
2021/12/14 07:33:50;;;;;;;32.90;18.35;;;8.70;99.90;;;;;;5035822;28;20112;-64
2021/12/14 07:36:32;;;;;;;31.80;19.27;;;8.80;99.90;;;;;;5035780;28;20037;-64
2021/12/14 07:39:00;;;;;;;31.77;18.60;;;8.80;99.90;;;;;;5035686;28;20048;-64
2021/12/14 07:41:35;;;;;;;35.40;20.55;;;8.70;99.90;;;;;;5036468;28;20026;-64
2021/12/14 07:44:25;;;;;;;30.58;18.70;;;8.50;99.90;;;;;;5035677;28;20112;-63
2021/12/14 07:47:21;;;;;;;33.83;19.80;;;8.40;99.90;;;;;;5036063;28;20045;-64
2021/12/14 07:49:54;;;;;;;34.55;18.75;;;8.30;99.90;;;;;;5035554;28;20203;-63
2021/12/14 07:52:24;;;;;;;37.05;20.63;;;8.30;99.90;;;;;;5035553;28;20038;-63
2021/12/14 07:54:54;;;;;;;34.75;19.10;;;8.20;99.90;;;;;;5036792;28;20056;-65
2021/12/14 07:57:23;;;;;;;34.13;19.80;;;8.40;99.90;;;;;;5036874;28;20045;-65
2021/12/14 08:00:15;;;;;;;35.35;19.65;;;8.50;99.90;;;;;;5040025;28;20299;-64
2021/12/14 08:02:50;;;;;;;35.58;20.15;;;8.50;99.90;;;;;;5039593;28;20129;-64
2021/12/14 08:05:35;;;;;;;35.50;20.45;;;8.50;99.90;;;;;;5040145;28;20101;-64
2021/12/14 08:08:16;;;;;;;35.15;19.73;;;8.50;99.90;;;;;;5022608;28;20029;-64
2021/12/14 08:11:09;;;;;;;35.90;20.30;;;8.50;99.90;;;;;;5039897;28;20029;-64
2021/12/14 08:13:45;;;;;;;37.38;20.27;;;8.50;99.90;;;;;;5039507;28;20021;-64
2021/12/14 08:16:12;;;;;;;35.03;19.92;;;8.60;99.90;;;;;;5039817;28;20270;-64
2021/12/14 08:18:39;;;;;;;37.88;20.60;;;8.60;99.90;;;;;;5039007;28;20041;-64
2021/12/14 08:21:06;;;;;;;39.88;20.90;;;8.60;99.90;;;;;;5040359;28;20029;-65
2021/12/14 08:23:48;;;;;;;37.17;21.15;;;8.60;99.90;;;;;;5039728;28;20021;-64
2021/12/14 08:26:17;;;;;;;36.65;20.90;;;8.60;99.90;;;;;;5039287;28;20293;-64
2021/12/14 08:29:02;;;;;;;38.25;21.90;;;8.50;99.90;;;;;;5038995;28;20037;-64
2021/12/14 08:31:48;;;;;;;39.17;21.65;;;8.50;99.90;;;;;;5039626;28;20403;-63
2021/12/14 08:34:25;;;;;;;40.35;21.33;;;8.40;99.90;;;;;;5038924;28;20436;-64
2021/12/14 08:37:11;;;;;;;42.50;21.88;;;8.40;99.90;;;;;;5039497;28;20040;-64
2021/12/14 08:40:04;;;;;;;40.92;22.38;;;8.30;99.90;;;;;;5039367;28;20037;-65
2021/12/14 08:42:50;;;;;;;42.65;22.42;;;8.40;99.90;;;;;;5022013;28;20393;-63
2021/12/14 08:45:26;;;;;;;44.08;22.33;;;8.50;99.90;;;;;;5039797;28;20353;-65
2021/12/14 08:48:13;;;;;;;40.38;22.70;;;8.70;99.90;;;;;;5039079;28;20112;-65
2021/12/14 08:51:03;;;;;;;40.10;22.30;;;8.70;99.90;;;;;;5039872;28;20030;-65
2021/12/14 08:53:35;;;;;;;40.42;22.15;;;8.80;99.90;;;;;;5039408;28;20095;-64
2021/12/14 08:56:05;;;;;;;41.17;22.00;;;8.80;99.90;;;;;;5038537;28;20304;-66
2021/12/14 08:58:32;;;;;;;40.72;21.20;;;8.80;99.90;;;;;;5039435;28;20029;-64
2021/12/14 09:01:09;;;;;;;43.65;22.58;;;8.90;99.90;;;;;;5021910;28;20029;-64
2021/12/14 09:03:40;;;;;;;40.78;22.50;;;9.00;99.90;;;;;;5039050;28;20036;-64
2021/12/14 09:06:12;;;;;;;38.40;21.90;;;9.00;99.90;;;;;;5021785;28;20030;-65
2021/12/14 09:08:41;;;;;;;37.50;21.48;;;9.20;99.90;;;;;;5038553;28;20025;-64
2021/12/14 09:11:09;;;;;;;40.15;22.20;;;9.00;99.90;;;;;;5038526;28;20029;-64
2021/12/14 09:13:35;;;;;;;41.72;21.27;;;8.90;99.90;;;;;;5038057;28;20044;-63
2021/12/14 09:16:11;;;;;;;39.55;22.15;;;8.70;99.90;;;;;;5038650;28;20033;-64
2021/12/14 09:18:44;;;;;;;44.15;23.08;;;8.60;99.90;;;;;;5038729;28;20068;-64
2021/12/14 09:21:29;;;;;;;47.35;22.90;;;8.60;99.90;;;;;;5038350;28;20065;-64
2021/12/14 09:23:58;;;;;;;39.55;21.80;;;8.70;99.90;;;;;;5038726;28;20408;-64
2021/12/14 09:26:28;;;;;;;39.85;22.48;;;8.70;99.90;;;;;;5038630;28;20025;-64
2021/12/14 09:28:54;;;;;;;45.72;23.88;;;8.70;99.90;;;;;;5038592;28;20021;-64
2021/12/14 09:31:26;;;;;;;41.08;21.73;;;8.80;99.90;;;;;;5037761;28;20099;-63
2021/12/14 09:33:58;;;;;;;42.95;22.85;;;8.70;99.90;;;;;;5037678;28;20044;-64
2021/12/14 09:36:25;;;;;;;45.17;23.77;;;8.80;99.90;;;;;;5037742;28;20025;-64
2021/12/14 09:38:56;;;;;;;41.55;23.35;;;8.80;99.90;;;;;;5004599;28;20095;-64
2021/12/14 09:41:28;;;;;;;40.83;22.60;;;9.00;99.90;;;;;;5038382;28;20033;-65
2021/12/14 09:43:54;;;;;;;42.60;23.58;;;9.30;99.90;;;;;;5038278;28;20033;-65
2021/12/14 09:46:21;;;;;;;47.20;23.83;;;9.40;99.90;;;;;;5020778;28;20050;-64
2021/12/14 09:48:55;;;;;;;40.65;22.70;;;9.10;99.90;;;;;;5038150;28;20029;-65
2021/12/14 09:51:30;;;;;;;40.33;22.77;;;8.90;99.90;;;;;;5038740;28;20277;-64
2021/12/14 09:53:58;;;;;;;42.53;22.70;;;8.90;99.90;;;;;;5038102;28;20360;-64
2021/12/14 09:56:26;;;;;;;45.85;24.08;;;8.90;99.90;;;;;;5038105;28;20120;-64
2021/12/14 09:58:58;;;;;;;45.20;24.33;;;8.80;99.90;;;;;;5037097;28;20025;-64
2021/12/14 10:01:42;;;;;;;42.35;23.40;;;8.90;99.90;;;;;;5020769;28;20029;-64
2021/12/14 10:04:16;;;;;;;43.78;23.60;;;8.90;99.90;;;;;;5037143;28;20160;-64
2021/12/14 10:06:42;;;;;;;43.10;23.45;;;8.90;99.90;;;;;;5038125;28;20094;-64
2021/12/14 10:09:13;;;;;;;44.67;23.40;;;8.90;99.90;;;;;;5037724;28;20300;-64
2021/12/14 10:12:00;;;;;;;40.63;23.27;;;8.90;99.90;;;;;;5037073;28;20049;-64
2021/12/14 10:14:40;;;;;;;42.17;23.00;;;9.00;99.90;;;;;;5037973;28;20411;-64
2021/12/14 10:17:10;;;;;;;40.20;22.23;;;9.20;99.90;;;;;;5037696;28;20304;-65
2021/12/14 10:19:39;;;;;;;42.85;24.08;;;9.30;99.90;;;;;;5037655;28;20036;-64
2021/12/14 10:22:10;;;;;;;40.95;22.52;;;9.40;99.90;;;;;;5037810;28;20025;-65
2021/12/14 10:24:36;;;;;;;40.80;22.85;;;9.50;99.90;;;;;;5037572;28;20041;-64
2021/12/14 10:27:12;;;;;;;43.92;23.42;;;9.50;99.90;;;;;;5020303;28;20405;-64
2021/12/14 10:29:39;;;;;;;45.45;24.80;;;9.50;99.90;;;;;;5037355;28;20041;-64
2021/12/14 10:32:14;;;;;;;39.65;23.38;;;9.50;99.90;;;;;;5036459;28;20091;-63
2021/12/14 10:34:45;;;;;;;40.60;23.10;;;9.50;99.90;;;;;;5036668;28;20029;-64
2021/12/14 10:37:21;;;;;;;39.80;22.92;;;9.50;99.90;;;;;;5020069;28;20029;-63
2021/12/14 10:45:05;;;;;;;45.63;23.33;;;9.50;99.90;;;;;;5037191;28;20123;-64
2021/12/14 10:47:32;;;;;;;39.47;22.75;;;9.50;99.90;;;;;;5019879;28;20054;-64
2021/12/14 10:50:05;;;;;;;39.72;22.13;;;9.40;99.90;;;;;;5020026;28;20359;-64
2021/12/14 10:52:32;;;;;;;38.85;22.48;;;9.30;99.90;;;;;;5019972;28;20053;-64
2021/12/14 10:55:08;;;;;;;43.15;22.25;;;9.20;99.90;;;;;;5036346;28;20313;-65
2021/12/14 10:57:36;;;;;;;43.33;23.05;;;9.30;99.90;;;;;;5036998;28;20029;-64
2021/12/14 11:00:18;;;;;;;40.85;23.20;;;9.30;99.90;;;;;;5036210;28;20309;-64
2021/12/14 11:02:44;;;;;;;40.70;22.25;;;9.30;99.90;;;;;;5019721;28;20025;-64
2021/12/14 11:05:17;;;;;;;42.03;23.55;;;9.30;99.90;;;;;;5036195;28;20080;-64
2021/12/14 11:07:46;;;;;;;41.42;22.48;;;9.30;99.90;;;;;;5037323;28;20048;-65
2021/12/14 11:10:16;;;;;;;42.95;22.90;;;9.40;99.90;;;;;;5036859;28;20129;-65
2021/12/14 11:12:46;;;;;;;44.33;22.00;;;9.50;99.90;;;;;;5036013;28;20029;-65
2021/12/14 11:15:20;;;;;;;41.20;22.25;;;9.50;99.90;;;;;;5036712;28;20028;-64
2021/12/14 11:18:08;;;;;;;38.08;21.55;;;9.60;99.90;;;;;;5036699;28;20319;-62
2021/12/14 11:20:37;;;;;;;41.80;22.63;;;9.50;99.90;;;;;;5036742;28;20128;-63
2021/12/14 11:23:03;;;;;;;38.67;21.90;;;9.60;99.90;;;;;;5036682;28;20342;-64
2021/12/14 11:25:33;;;;;;;38.15;21.25;;;9.70;99.90;;;;;;5036769;28;20068;-64
2021/12/14 11:28:31;;;;;;;40.03;21.23;;;9.70;99.90;;;;;;5019946;28;20056;-64
2021/12/14 11:31:06;;;;;;;38.53;21.95;;;9.80;99.90;;;;;;5036227;28;20034;-64
2021/12/14 11:33:35;;;;;;;41.10;22.15;;;9.80;99.90;;;;;;5021831;28;20316;-63
2021/12/14 11:36:05;;;;;;;41.58;21.90;;;9.70;99.90;;;;;;5023188;28;20277;-63
2021/12/14 11:38:41;;;;;;;40.38;21.52;;;9.70;99.90;;;;;;5039730;28;20430;-64
2021/12/14 11:41:21;;;;;;;41.00;21.77;;;9.80;99.90;;;;;;5040679;28;20017;-63
2021/12/14 11:43:52;;;;;;;35.78;20.75;;;9.90;99.90;;;;;;5023229;28;20347;-64
2021/12/14 11:46:19;;;;;;;37.17;20.80;;;10.00;99.90;;;;;;5040298;28;20041;-65
2021/12/14 11:48:45;;;;;;;35.63;20.92;;;10.30;99.90;;;;;;5039946;28;20092;-64
2021/12/14 11:51:11;;;;;;;36.13;20.90;;;10.40;99.90;;;;;;5007015;28;20040;-64
2021/12/14 11:53:38;;;;;;;38.38;21.27;;;10.50;99.90;;;;;;5040398;28;20045;-64
2021/12/14 11:56:10;;;;;;;34.28;20.58;;;10.20;99.90;;;;;;5040234;28;20049;-64
2021/12/14 11:58:45;;;;;;;38.88;22.27;;;10.00;99.90;;;;;;5040670;28;20030;-64
2021/12/14 12:01:44;;;;;;;34.63;20.05;;;10.10;99.90;;;;;;5039455;28;20029;-65
2021/12/14 12:04:14;;;;;;;38.03;20.92;;;10.10;99.90;;;;;;5049140;28;20044;-64
2021/12/14 12:09:44;;;;;;;36.53;20.52;;;10.20;99.90;;;;;;5040330;28;20083;-63
2021/12/14 12:12:10;;;;;;;38.88;21.08;;;10.20;99.90;;;;;;5039978;28;20034;-64
2021/12/14 12:14:50;;;;;;;37.15;20.48;;;10.20;99.90;;;;;;5022678;28;20029;-64
2021/12/14 12:17:52;;;;;;;36.92;21.10;;;10.20;99.90;;;;;;5039910;28;20120;-64
2021/12/14 12:20:46;;;;;;;33.80;20.15;;;10.60;99.90;;;;;;5039367;28;20060;-65
2021/12/14 12:23:17;;;;;;;36.10;20.50;;;10.80;99.90;;;;;;5039785;28;20293;-65
2021/12/14 12:25:57;;;;;;;35.55;20.10;;;10.90;99.90;;;;;;5022663;28;20034;-66
2021/12/14 12:28:29;;;;;;;32.15;20.60;;;11.00;99.90;;;;;;5039715;28;20025;-66
2021/12/14 12:31:05;;;;;;;33.92;21.08;;;11.20;99.90;;;;;;5022348;28;20026;-66
2021/12/14 12:33:33;;;;;;;34.08;20.80;;;11.40;99.90;;;;;;5022411;28;20061;-66
2021/12/14 12:36:17;;;;;;;35.90;20.60;;;11.10;99.90;;;;;;5038835;28;20108;-66
2021/12/14 12:39:00;;;;;;;35.05;20.95;;;10.90;99.90;;;;;;5039457;28;20069;-66
2021/12/14 12:41:51;;;;;;;32.72;20.20;;;10.90;99.90;;;;;;5040067;28;20397;-66
2021/12/14 12:44:21;;;;;;;34.67;20.45;;;10.80;99.90;;;;;;5037417;28;20030;-65
2021/12/14 12:46:58;;;;;;;34.00;20.33;;;10.60;99.90;;;;;;5039182;28;20046;-65
2021/12/14 12:49:27;;;;;;;33.53;20.35;;;10.80;99.90;;;;;;5038979;28;20053;-65
2021/12/14 12:52:15;;;;;;;34.10;20.20;;;10.60;99.90;;;;;;5039172;28;20030;-65
2021/12/14 12:54:46;;;;;;;32.17;20.42;;;10.60;99.90;;;;;;5038342;28;20029;-66
2021/12/14 12:57:22;;;;;;;35.28;22.38;;;10.60;99.90;;;;;;5039154;28;20030;-65
2021/12/14 12:59:49;;;;;;;30.65;19.25;;;10.70;99.90;;;;;;5039111;28;20033;-65
2021/12/14 13:02:21;;;;;;;32.78;19.95;;;10.80;99.90;;;;;;5039111;28;20431;-65
2021/12/14 13:04:53;;;;;;;36.30;20.33;;;11.20;99.90;;;;;;5038440;28;20077;-66
2021/12/14 13:07:27;;;;;;;34.20;21.33;;;11.00;99.90;;;;;;5039432;28;20049;-66
2021/12/14 13:10:31;;;;;;;36.58;20.65;;;10.80;99.90;;;;;;5039191;28;20078;-64
2021/12/14 13:13:35;;;;;;;35.70;21.25;;;10.50;99.90;;;;;;5031872;28;20124;-65
2021/12/14 13:16:01;;;;;;;33.42;20.33;;;10.50;99.90;;;;;;5037726;28;20041;-65
2021/12/14 13:18:35;;;;;;;34.38;21.48;;;10.40;99.90;;;;;;5037394;28;20324;-65
2021/12/14 13:21:13;;;;;;;34.78;20.85;;;10.40;99.90;;;;;;5037763;28;20423;-66
2021/12/14 13:24:04;;;;;;;35.92;20.88;;;10.50;99.90;;;;;;5038681;28;20040;-64
2021/12/14 13:26:50;;;;;;;35.75;20.40;;;10.30;99.90;;;;;;5038659;28;20044;-65
2021/12/14 13:29:31;;;;;;;36.70;21.15;;;10.20;99.90;;;;;;5038686;28;20266;-66
2021/12/14 13:32:02;;;;;;;34.58;21.88;;;10.20;99.90;;;;;;5037800;28;20044;-66
2021/12/14 13:34:46;;;;;;;36.42;21.35;;;10.30;99.90;;;;;;5038572;28;20072;-65
2021/12/14 13:37:19;;;;;;;38.13;21.08;;;10.40;99.90;;;;;;5039005;28;20034;-65
2021/12/14 13:39:47;;;;;;;35.22;21.13;;;10.60;99.90;;;;;;5038626;28;20029;-66
2021/12/14 13:42:26;;;;;;;35.83;21.08;;;10.80;99.90;;;;;;5038357;28;20022;-66
2021/12/14 13:44:53;;;;;;;32.80;19.50;;;10.80;99.90;;;;;;5038307;28;20040;-66
2021/12/14 13:47:23;;;;;;;33.95;20.55;;;10.80;99.90;;;;;;5038024;28;20049;-65
2021/12/14 13:49:50;;;;;;;35.22;20.98;;;10.70;99.90;;;;;;5038345;28;20040;-65